createdAt,value
2018-09-25T00:03:47.361Z,87.20
2018-09-25T00:06:21.025Z,87.20
2018-09-25T00:08:54.692Z,87.50
2018-09-25T00:11:28.487Z,87.50
2018-09-25T00:14:02.293Z,87.50
2018-09-25T00:16:36.161Z,88.20
2018-09-25T00:19:09.974Z,88.10
2018-09-25T00:21:43.629Z,88.10
2018-09-25T00:24:17.472Z,88.00
2018-09-25T00:26:51.168Z,87.80
2018-09-25T00:29:25.016Z,87.80
2018-09-25T00:31:58.802Z,88.20
2018-09-25T00:34:32.588Z,88.10
2018-09-25T00:37:06.161Z,88.30
2018-09-25T00:39:39.784Z,88.20
2018-09-25T00:42:13.518Z,88.20
2018-09-25T00:44:47.371Z,88.40
2018-09-25T00:47:21.038Z,88.10
2018-09-25T00:52:28.334Z,87.60
2018-09-25T00:55:02.163Z,87.50
2018-09-25T00:57:35.933Z,87.50
2018-09-25T01:00:09.989Z,87.70
2018-09-25T01:02:43.808Z,87.60
2018-09-25T01:05:17.517Z,87.60
2018-09-25T01:07:51.376Z,87.70
2018-09-25T01:10:25.201Z,87.60
2018-09-25T01:18:05.857Z,88.10
2018-09-25T01:20:39.692Z,88.10
2018-09-25T01:23:13.497Z,88.20
2018-09-25T01:25:47.249Z,88.20
2018-09-25T01:28:21.141Z,88.20
2018-09-25T01:30:55.050Z,88.20
2018-09-25T01:33:28.858Z,88.20
2018-09-25T01:36:02.693Z,88.30
2018-09-25T01:38:36.433Z,88.70
2018-09-25T01:41:10.175Z,88.60
2018-09-25T01:43:43.925Z,88.60
2018-09-25T01:46:17.569Z,88.60
2018-09-25T01:48:51.321Z,88.70
2018-09-25T01:51:25.244Z,88.60
2018-09-25T01:53:59.032Z,88.60
2018-09-25T01:56:32.753Z,88.30
2018-09-25T01:59:06.410Z,88.40
2018-09-25T02:01:40.110Z,88.40
2018-09-25T02:04:13.896Z,88.70
2018-09-25T02:06:47.669Z,88.70
2018-09-25T02:09:21.538Z,88.70
2018-09-25T02:11:55.408Z,88.60
2018-09-25T02:14:29.095Z,88.40
2018-09-25T02:17:02.907Z,88.40
2018-09-25T02:19:36.747Z,88.30
2018-09-25T02:22:10.465Z,88.40
2018-09-25T02:24:44.229Z,88.50
2018-09-25T02:27:17.954Z,88.50
2018-09-25T02:29:51.687Z,88.60
2018-09-25T02:34:59.120Z,88.60
2018-09-25T02:37:32.901Z,88.50
2018-09-25T02:40:06.910Z,88.50
2018-09-25T02:42:40.740Z,88.50
2018-09-25T02:45:14.288Z,88.30
2018-09-25T02:47:48.129Z,88.40
2018-09-25T02:50:22.005Z,88.50
2018-09-25T02:52:55.747Z,88.60
2018-09-25T02:55:29.331Z,88.50
2018-09-25T02:58:03.034Z,88.60
2018-09-25T03:00:36.708Z,88.70
2018-09-25T03:03:10.560Z,88.70
2018-09-25T03:05:44.303Z,88.80
2018-09-25T03:08:18.111Z,88.70
2018-09-25T03:10:51.697Z,89.10
2018-09-25T03:13:25.448Z,89.00
2018-09-25T03:15:59.152Z,89.10
2018-09-25T03:18:32.853Z,89.00
2018-09-25T03:21:06.687Z,89.10
2018-09-25T03:23:40.546Z,89.60
2018-09-25T03:26:14.013Z,89.40
2018-09-25T03:28:47.630Z,89.10
2018-09-25T03:31:21.357Z,88.90
2018-09-25T03:33:55.080Z,88.90
2018-09-25T03:36:28.636Z,88.80
2018-09-25T03:39:02.465Z,88.70
2018-09-25T03:41:36.225Z,88.70
2018-09-25T03:44:09.917Z,88.50
2018-09-25T03:46:43.637Z,88.60
2018-09-25T03:49:17.285Z,88.50
2018-09-25T03:51:50.881Z,88.40
2018-09-25T03:54:24.489Z,88.50
2018-09-25T03:56:58.293Z,88.50
2018-09-25T03:59:31.985Z,88.50
2018-09-25T04:02:05.506Z,88.80
2018-09-25T04:04:39.197Z,88.90
2018-09-25T04:07:13.336Z,88.80
2018-09-25T04:09:46.952Z,88.70
2018-09-25T04:12:20.844Z,88.60
2018-09-25T04:14:54.500Z,88.70
2018-09-25T04:17:28.336Z,88.70
2018-09-25T04:20:02.125Z,88.70
2018-09-25T04:22:35.997Z,88.80
2018-09-25T04:25:10.009Z,88.80
2018-09-25T04:27:43.976Z,88.80
2018-09-25T04:30:17.533Z,89.00
2018-09-25T04:32:51.456Z,88.80
2018-09-25T04:35:25.160Z,88.90
2018-09-25T04:37:58.869Z,89.10
2018-09-25T04:40:32.693Z,89.00
2018-09-25T04:43:06.569Z,89.00
2018-09-25T04:45:40.390Z,89.10
2018-09-25T04:48:14.305Z,88.90
2018-09-25T04:50:47.929Z,88.90
2018-09-25T04:55:55.557Z,88.90
2018-09-25T04:58:29.453Z,88.80
2018-09-25T05:01:03.253Z,89.00
2018-09-25T05:03:36.993Z,88.90
2018-09-25T05:06:10.678Z,88.90
2018-09-25T05:08:44.304Z,89.10
2018-09-25T05:11:18.116Z,89.00
2018-09-25T05:13:51.972Z,89.10
2018-09-25T05:18:59.286Z,89.40
2018-09-25T05:21:33.038Z,89.40
2018-09-25T05:26:40.359Z,89.00
2018-09-25T05:29:14.082Z,88.90
2018-09-25T05:31:47.703Z,88.80
2018-09-25T05:34:21.482Z,88.60
2018-09-25T05:36:55.067Z,88.60
2018-09-25T05:39:28.994Z,88.60
2018-09-25T05:42:02.766Z,88.40
2018-09-25T05:44:36.525Z,88.10
2018-09-25T05:47:10.362Z,88.40
2018-09-25T05:54:51.288Z,87.80
2018-09-25T05:57:25.233Z,87.70
2018-09-25T05:59:59.028Z,87.70
2018-09-25T06:02:32.865Z,87.40
2018-09-25T06:05:06.689Z,87.00
2018-09-25T06:07:40.372Z,87.00
2018-09-25T06:10:14.030Z,86.70
2018-09-25T06:12:47.946Z,86.70
2018-09-25T06:15:21.628Z,86.50
2018-09-25T06:17:55.385Z,86.20
2018-09-25T06:20:29.117Z,86.20
2018-09-25T06:23:02.929Z,86.20
2018-09-25T06:25:36.653Z,86.20
2018-09-25T06:28:10.570Z,86.60
2018-09-25T06:30:44.322Z,87.10
2018-09-25T06:33:18.149Z,86.80
2018-09-25T06:35:52.001Z,87.10
2018-09-25T06:38:25.804Z,87.10
2018-09-25T06:40:59.470Z,87.10
2018-09-25T06:43:32.988Z,86.70
2018-09-25T06:46:06.665Z,86.00
2018-09-25T06:48:40.368Z,86.30
2018-09-25T06:51:14.176Z,86.20
2018-09-25T06:53:47.909Z,86.00
2018-09-25T06:56:21.721Z,86.20
2018-09-25T07:01:28.789Z,83.90
2018-09-25T07:04:02.677Z,82.30
2018-09-25T07:06:36.481Z,77.50
2018-09-25T07:09:12.389Z,76.60
2018-09-25T07:11:46.097Z,73.30
2018-09-25T07:14:20.436Z,72.60
2018-09-25T07:16:54.049Z,71.00
2018-09-25T07:19:27.770Z,71.70
2018-09-25T07:22:01.480Z,72.80
2018-09-25T07:24:36.519Z,74.40
2018-09-25T07:27:10.248Z,74.80
2018-09-25T07:29:43.893Z,75.40
2018-09-25T07:32:17.593Z,76.70
2018-09-25T07:34:51.272Z,77.00
2018-09-25T07:37:25.035Z,75.90
2018-09-25T07:39:58.604Z,76.70
2018-09-25T07:42:32.381Z,77.50
2018-09-25T07:45:06.116Z,76.90
2018-09-25T07:47:39.712Z,75.80
2018-09-25T07:50:13.420Z,74.60
2018-09-25T07:55:20.685Z,74.90
2018-09-25T07:57:54.368Z,74.90
2018-09-25T08:00:28.292Z,73.40
2018-09-25T08:03:02.063Z,73.40
2018-09-25T08:05:35.756Z,73.70
2018-09-25T08:08:09.660Z,71.80
2018-09-25T08:10:43.389Z,71.30
2018-09-25T08:13:17.232Z,71.10
2018-09-25T08:15:50.895Z,70.40
2018-09-25T08:18:24.661Z,69.60
2018-09-25T08:20:58.424Z,70.90
2018-09-25T08:23:32.189Z,71.30
2018-09-25T08:26:05.991Z,71.60
2018-09-25T08:28:39.621Z,71.70
2018-09-25T08:31:13.313Z,71.10
2018-09-25T08:33:47.063Z,70.90
2018-09-25T08:36:20.839Z,70.10
2018-09-25T08:41:28.069Z,69.90
2018-09-25T08:44:01.840Z,69.40
2018-09-25T08:46:35.726Z,69.00
2018-09-25T08:49:09.589Z,67.70
2018-09-25T08:56:50.349Z,68.50
2018-09-25T08:59:24.028Z,67.00
2018-09-25T09:01:57.940Z,64.90
2018-09-25T09:04:31.676Z,62.10
2018-09-25T09:07:05.505Z,61.70
2018-09-25T09:09:39.312Z,60.80
2018-09-25T09:12:13.177Z,60.00
2018-09-25T09:14:47.024Z,59.50
2018-09-25T09:17:20.747Z,58.60
2018-09-25T09:19:54.549Z,57.90
2018-09-25T09:22:28.427Z,59.90
2018-09-25T09:25:02.083Z,56.60
2018-09-25T09:27:35.969Z,56.00
2018-09-25T09:30:09.857Z,57.90
2018-09-25T09:32:43.560Z,56.70
2018-09-25T09:35:17.398Z,53.90
2018-09-25T09:37:51.033Z,51.20
2018-09-25T09:40:24.945Z,49.70
2018-09-25T09:42:58.773Z,49.80
2018-09-25T09:45:32.524Z,49.50
2018-09-25T09:48:06.254Z,47.90
2018-09-25T09:50:40.176Z,48.40
2018-09-25T09:53:13.858Z,49.00
2018-09-25T09:55:47.638Z,50.90
2018-09-25T10:00:54.951Z,49.50
2018-09-25T10:03:28.616Z,49.30
2018-09-25T10:06:02.484Z,46.60
2018-09-25T10:11:09.777Z,49.50
2018-09-25T10:13:43.597Z,49.60
2018-09-25T10:16:17.437Z,45.50
2018-09-25T10:18:51.160Z,47.30
2018-09-25T10:21:25.101Z,46.10
2018-09-25T10:23:58.900Z,47.30
2018-09-25T10:26:32.751Z,47.40
2018-09-25T10:29:06.404Z,47.80
2018-09-25T10:34:13.621Z,53.10
2018-09-25T10:36:47.222Z,57.70
2018-09-25T10:39:21.189Z,58.90
2018-09-25T10:41:54.937Z,61.50
2018-09-25T10:44:28.786Z,62.30
2018-09-25T10:47:02.434Z,59.30
2018-09-25T10:52:09.605Z,53.10
2018-09-25T10:54:43.222Z,55.00
2018-09-25T10:57:17.167Z,57.30
2018-09-25T10:59:50.959Z,60.40
2018-09-25T11:02:24.862Z,63.10
2018-09-25T11:04:58.684Z,63.30
2018-09-25T11:07:32.573Z,62.90
2018-09-25T11:10:06.554Z,62.60
2018-09-25T11:12:40.428Z,62.80
2018-09-25T11:15:14.161Z,64.20
2018-09-25T11:17:48.009Z,64.30
2018-09-25T11:20:21.857Z,63.70
2018-09-25T11:22:55.623Z,64.20
2018-09-25T11:25:29.227Z,64.20
2018-09-25T11:28:02.908Z,63.20
2018-09-25T11:30:36.804Z,64.10
2018-09-25T11:33:10.676Z,64.10
2018-09-25T11:35:44.515Z,63.90
2018-09-25T11:38:18.188Z,64.90
2018-09-25T11:40:52.132Z,64.00
2018-09-25T11:43:25.774Z,63.80
2018-09-25T11:45:59.559Z,63.70
2018-09-25T11:48:33.360Z,63.90
2018-09-25T11:51:07.193Z,64.20
2018-09-25T11:53:41.066Z,63.80
2018-09-25T11:56:14.934Z,63.00
2018-09-25T11:58:48.669Z,63.20
2018-09-25T12:01:22.520Z,62.50
2018-09-25T12:03:56.290Z,62.90
2018-09-25T12:09:03.565Z,64.00
2018-09-25T12:11:37.268Z,65.10
2018-09-25T12:14:11.212Z,64.90
2018-09-25T12:16:44.972Z,65.10
2018-09-25T12:19:18.791Z,64.20
2018-09-25T12:21:52.518Z,64.00
2018-09-25T12:24:26.329Z,64.40
2018-09-25T12:27:00.123Z,64.10
2018-09-25T12:29:33.777Z,64.50
2018-09-25T12:32:07.704Z,63.70
2018-09-25T12:34:41.529Z,64.10
2018-09-25T12:37:15.289Z,62.90
2018-09-25T12:42:22.601Z,62.70
2018-09-25T12:44:56.464Z,62.90
2018-09-25T12:47:30.077Z,63.90
2018-09-25T12:50:03.921Z,64.00
2018-09-25T12:52:37.949Z,64.30
2018-09-25T12:55:11.773Z,63.50
2018-09-25T12:57:45.581Z,63.80
2018-09-25T13:00:19.335Z,62.70
2018-09-25T13:02:53.011Z,62.60
2018-09-25T13:05:26.873Z,62.70
2018-09-25T13:08:00.629Z,64.00
2018-09-25T13:10:34.220Z,63.90
2018-09-25T13:13:08.132Z,64.10
2018-09-25T13:15:42.074Z,64.10
2018-09-25T13:18:15.980Z,64.20
2018-09-25T13:20:49.845Z,63.30
2018-09-25T13:25:57.161Z,62.40
2018-09-25T13:28:30.873Z,62.50
2018-09-25T13:31:04.652Z,61.30
2018-09-25T13:33:38.327Z,61.70
2018-09-25T13:36:12.202Z,62.10
2018-09-25T13:38:45.952Z,62.40
2018-09-25T13:41:19.673Z,61.70
2018-09-25T13:43:53.526Z,61.50
2018-09-25T13:46:27.352Z,61.80
2018-09-25T13:49:01.129Z,61.60
2018-09-25T13:51:34.841Z,61.50
2018-09-25T13:54:08.660Z,61.50
2018-09-25T13:59:16.164Z,61.40
2018-09-25T14:01:50.090Z,61.80
2018-09-25T14:04:23.808Z,60.80
2018-09-25T14:06:57.725Z,61.50
2018-09-25T14:12:05.223Z,60.60
2018-09-25T14:17:13.124Z,61.70
2018-09-25T14:19:47.013Z,61.50
2018-09-25T14:22:20.888Z,62.10
2018-09-25T14:24:54.709Z,61.70
2018-09-25T14:27:28.517Z,61.60
2018-09-25T14:30:02.217Z,61.80
2018-09-25T14:32:35.957Z,62.10
2018-09-25T14:35:09.750Z,62.50
2018-09-25T14:37:43.437Z,63.30
2018-09-25T14:40:17.170Z,63.90
2018-09-25T14:42:50.898Z,63.20
2018-09-25T14:45:24.648Z,63.10
2018-09-25T14:47:58.473Z,62.60
2018-09-25T14:50:32.204Z,62.70
2018-09-25T14:53:05.900Z,62.30
2018-09-25T14:55:39.853Z,62.80
2018-09-25T14:58:13.648Z,63.30
2018-09-25T15:00:47.429Z,63.20
2018-09-25T15:03:21.129Z,63.70
2018-09-25T15:05:54.861Z,63.10
2018-09-25T15:08:28.531Z,63.90
2018-09-25T15:11:02.337Z,63.80
2018-09-25T15:13:36.275Z,63.90
2018-09-25T15:16:10.048Z,63.20
2018-09-25T15:18:43.805Z,63.00
2018-09-25T15:21:17.912Z,62.70
2018-09-25T15:26:25.085Z,62.70
2018-09-25T15:28:58.761Z,64.10
2018-09-25T15:31:32.651Z,64.50
2018-09-25T15:34:06.459Z,64.40
2018-09-25T15:39:14.340Z,64.50
2018-09-25T15:41:48.301Z,64.10
2018-09-25T15:44:22.109Z,64.40
2018-09-25T15:46:55.845Z,64.30
2018-09-25T15:49:29.713Z,64.30
2018-09-25T15:52:03.341Z,64.20
2018-09-25T15:54:37.136Z,64.00
2018-09-25T15:57:11.085Z,63.80
2018-09-25T15:59:44.959Z,64.00
2018-09-25T16:02:18.822Z,64.30
2018-09-25T16:04:52.802Z,64.50
2018-09-25T16:07:26.593Z,64.90
2018-09-25T16:10:00.438Z,64.40
2018-09-25T16:12:34.296Z,64.30
2018-09-25T16:15:08.125Z,64.20
2018-09-25T16:17:42.038Z,63.80
2018-09-25T16:20:15.585Z,63.80
2018-09-25T16:22:49.334Z,64.00
2018-09-25T16:25:23.208Z,64.40
2018-09-25T16:27:56.908Z,64.90
2018-09-25T16:30:30.825Z,65.30
2018-09-25T16:33:04.482Z,65.70
2018-09-25T16:35:38.308Z,65.90
2018-09-25T16:38:12.040Z,66.60
2018-09-25T16:40:45.806Z,67.30
2018-09-25T16:43:19.445Z,67.40
2018-09-25T16:45:53.078Z,67.70
2018-09-25T16:48:26.758Z,68.00
2018-09-25T16:51:00.541Z,68.30
2018-09-25T16:53:34.158Z,68.80
2018-09-25T16:56:07.790Z,69.20
2018-09-25T16:58:41.624Z,69.50
2018-09-25T17:01:15.469Z,69.80
2018-09-25T17:06:22.857Z,70.10
2018-09-25T17:08:56.752Z,70.20
2018-09-25T17:11:30.423Z,70.50
2018-09-25T17:14:04.331Z,71.10
2018-09-25T17:16:38.093Z,71.60
2018-09-25T17:19:12.281Z,72.10
2018-09-25T17:21:45.947Z,72.50
2018-09-25T17:24:19.798Z,73.00
2018-09-25T17:26:53.631Z,73.30
2018-09-25T17:29:27.693Z,73.30
2018-09-25T17:32:01.416Z,73.80
2018-09-25T17:34:35.365Z,74.10
2018-09-25T17:37:08.928Z,74.50
2018-09-25T17:39:42.794Z,74.40
2018-09-25T17:42:16.557Z,74.70
2018-09-25T17:44:50.421Z,75.10
2018-09-25T17:47:24.181Z,75.30
2018-09-25T17:49:58.045Z,75.40
2018-09-25T17:52:31.877Z,75.50
2018-09-25T17:55:05.738Z,75.70
2018-09-25T17:57:39.603Z,75.80
2018-09-25T18:00:13.320Z,75.30
2018-09-25T18:02:47.119Z,75.30
2018-09-25T18:05:21.010Z,75.30
2018-09-25T18:07:54.946Z,75.50
2018-09-25T18:10:28.821Z,75.60
2018-09-25T18:15:36.197Z,75.80
2018-09-25T18:18:10.111Z,75.90
2018-09-25T18:20:44.012Z,76.10
2018-09-25T18:23:17.897Z,76.00
2018-09-25T18:25:51.560Z,76.30
2018-09-25T18:28:25.293Z,76.60
2018-09-25T18:30:59.027Z,77.00
2018-09-25T18:33:32.867Z,77.00
2018-09-25T18:36:06.505Z,76.70
2018-09-25T18:38:40.337Z,76.60
2018-09-25T18:41:14.196Z,76.70
2018-09-25T18:43:48.005Z,76.60
2018-09-25T18:46:21.583Z,76.80
2018-09-25T18:48:55.287Z,77.10
2018-09-25T18:51:29.041Z,77.20
2018-09-25T18:54:02.983Z,77.20
2018-09-25T18:56:36.649Z,77.40
2018-09-25T18:59:10.651Z,78.10
2018-09-25T19:01:44.503Z,77.50
2018-09-25T19:04:18.315Z,77.50
2018-09-25T19:06:52.094Z,77.50
2018-09-25T19:11:59.312Z,78.10
2018-09-25T19:14:32.929Z,78.30
2018-09-25T19:17:06.669Z,78.40
2018-09-25T19:19:40.553Z,78.50
2018-09-25T19:22:14.378Z,78.60
2018-09-25T19:24:48.021Z,78.60
2018-09-25T19:29:55.408Z,78.70
2018-09-25T19:32:29.264Z,78.90
2018-09-25T19:35:03.096Z,79.00
2018-09-25T19:37:43.982Z,79.00
2018-09-25T19:40:17.649Z,79.20
2018-09-25T19:42:51.234Z,79.20
2018-09-25T19:45:24.917Z,79.20
2018-09-25T19:47:58.612Z,79.20
2018-09-25T19:50:32.550Z,79.40
2018-09-25T19:53:06.333Z,79.10
2018-09-25T19:55:40.173Z,79.10
2018-09-25T19:58:14.081Z,79.10
2018-09-25T20:00:47.988Z,79.10
2018-09-25T20:03:21.736Z,79.10
2018-09-25T20:05:55.601Z,79.50
2018-09-25T20:08:29.192Z,80.20
2018-09-25T20:11:03.029Z,80.40
2018-09-25T20:13:36.753Z,80.60
2018-09-25T20:16:10.584Z,80.80
2018-09-25T20:21:18.122Z,80.80
2018-09-25T20:28:59.045Z,80.30
2018-09-25T20:31:32.809Z,80.50
2018-09-25T20:34:06.481Z,80.80
2018-09-25T20:39:13.747Z,80.40
2018-09-25T20:44:20.977Z,80.60
2018-09-25T20:46:54.912Z,81.00
2018-09-25T20:49:28.784Z,81.10
2018-09-25T20:52:02.600Z,81.00
2018-09-25T20:57:09.862Z,81.00
2018-09-25T20:59:43.753Z,80.90
2018-09-25T21:02:17.638Z,80.90
2018-09-25T21:04:51.293Z,80.60
2018-09-25T21:07:25.075Z,80.90
2018-09-25T21:09:58.751Z,81.00
2018-09-25T21:12:32.528Z,81.10
2018-09-25T21:15:06.418Z,81.10
2018-09-25T21:17:40.033Z,81.20
2018-09-25T21:20:13.898Z,81.70
2018-09-25T21:22:47.701Z,81.50
2018-09-25T21:25:21.305Z,81.60
2018-09-25T21:27:55.008Z,81.70
2018-09-25T21:30:28.639Z,81.80
2018-09-25T21:33:02.373Z,82.10
2018-09-25T21:35:35.957Z,82.30
2018-09-25T21:38:09.632Z,82.40
2018-09-25T21:40:43.356Z,82.50
2018-09-25T21:43:17.126Z,82.40
2018-09-25T21:45:50.836Z,82.70
2018-09-25T21:48:24.764Z,82.60
2018-09-25T21:50:58.724Z,82.60
2018-09-25T21:53:32.417Z,82.60
2018-09-25T21:56:06.308Z,82.70
2018-09-25T21:58:40.038Z,82.80
2018-09-25T22:01:14.000Z,83.10
2018-09-25T22:03:47.796Z,83.30
2018-09-25T22:06:21.525Z,83.20
2018-09-25T22:08:55.391Z,83.30
2018-09-25T22:11:29.377Z,83.30
2018-09-25T22:14:03.080Z,83.10
2018-09-25T22:16:36.788Z,83.20
2018-09-25T22:19:10.588Z,83.40
2018-09-25T22:21:44.125Z,83.40
2018-09-25T22:24:17.837Z,83.50
2018-09-25T22:26:51.662Z,83.50
2018-09-25T22:29:25.500Z,83.80
2018-09-25T22:31:59.249Z,83.70
2018-09-25T22:34:32.881Z,83.70
2018-09-25T22:37:06.735Z,83.80
2018-09-25T22:39:40.529Z,83.80
2018-09-25T22:42:14.340Z,83.70
2018-09-25T22:44:48.054Z,83.70
2018-09-25T22:47:21.775Z,83.50
2018-09-25T22:49:55.686Z,83.70
2018-09-25T22:52:29.268Z,83.80
2018-09-25T22:55:02.993Z,84.10
2018-09-25T22:57:36.736Z,84.20
2018-09-25T23:00:10.681Z,84.30
2018-09-25T23:02:44.353Z,84.50
2018-09-25T23:05:18.254Z,84.50
2018-09-25T23:07:51.974Z,84.70
2018-09-25T23:10:25.861Z,84.90
2018-09-25T23:12:59.785Z,85.10
2018-09-25T23:15:33.665Z,85.20
2018-09-25T23:18:07.457Z,85.20
2018-09-25T23:20:41.204Z,85.20
2018-09-25T23:23:14.898Z,85.30
2018-09-25T23:25:48.599Z,85.30
2018-09-25T23:28:22.316Z,85.20
2018-09-25T23:30:56.152Z,85.20
2018-09-25T23:33:29.990Z,85.10
2018-09-25T23:36:03.736Z,85.10
2018-09-25T23:38:37.440Z,84.90
2018-09-25T23:41:27.107Z,84.60
2018-09-25T23:44:00.648Z,84.60
2018-09-25T23:46:38.212Z,84.50
2018-09-25T23:49:20.438Z,84.50
2018-09-25T23:51:55.981Z,84.50
2018-09-25T23:54:38.259Z,84.50
2018-09-25T23:58:10.506Z,84.60
